Aérodrome :







RETROUVEZ-NOUS SUR...

 
LOGIN :

S'inscrire | Disclaimer

   EN    FR    IT 

 









Légende :    VFR   VFR Marginal   IFR   IFR Intensif   IFR Très Intensif
Visi : 
Plafond : 
>= 8 km
>= 3000ft
5 à 8 km
1000 à 3000 ft
1500m à 5 km
500 à 1000 ft
800 à 1500m
200 à 500 ft
< 800m
< 200 ft
Symboles :   Orages  Brouillard  Fortes neiges  Fortes précipitations  Vent > 20 kt







- Altitude de l'aérodrome : 1442 ft
- Code IATA : ZUM


CZUM - Churchill Falls

DERNIER METAR :
  • 170500Z AUTO 14004KT 9SM OVC090 18/14 A2959 RMK SLP022 DENSITY ALT 2500FT

METARs EXPIRÉS :
  • 170400Z AUTO 14004KT 9SM OVC095 18/14 A2962 RMK SLP032 DENSITY ALT 2400FT

TAF TAF CZUM
Valide du 17 à 02h jusqu'au 17 à 14h UTC


170138Z 1702/1714 19006KT P6SM BKN120
TEMPO 1702/1712 5SM -SHRA BR BKN050 OVC100
FM171200 20012KT P6SM OVC025
TEMPO 1712/1714 5SM -SHRA BR OVC020
BECMG 1712/1714 25015G25KT RMK FCST BASED ON AUTO OBS. NXT FCST BY 170800Z
FIR CZQX / Amérique du Nord



MET'MAP, la Météo Aéronautique d'un coup d'oeil ! - Copyright ORBIFLY Décembre 2007 - Disclaimer

ORBIFLY MET'MAP TEAM :

Programmation & Développement : Alexandra Zaïnal
Conception & Développement : Baudouin d'Aumeries
Co-Programmation & Développement : Marc-Olivier Méhu
Soutien technique & logistique : Manuel Goepfert

Contact : metmap@orbifly.com




SOURCES & CREDITS :

   NOAA